createdAt,value
2019-01-15T00:02:09.306Z,74.38
2019-01-15T00:04:39.405Z,74.19
2019-01-15T00:07:09.535Z,74.24
2019-01-15T00:09:39.660Z,74.80
2019-01-15T00:12:10.743Z,74.25
2019-01-15T00:14:41.053Z,74.12
2019-01-15T00:17:11.436Z,74.17
2019-01-15T00:19:41.619Z,74.71
2019-01-15T00:22:11.766Z,74.38
2019-01-15T00:24:42.285Z,74.19
2019-01-15T00:27:12.462Z,74.66
2019-01-15T00:29:42.667Z,74.18
2019-01-15T00:32:13.271Z,73.94
2019-01-15T00:34:43.355Z,74.04
2019-01-15T00:37:13.486Z,73.95
2019-01-15T00:39:43.669Z,73.53
2019-01-15T00:42:15.475Z,74.03
2019-01-15T00:44:46.464Z,73.24
2019-01-15T00:47:16.858Z,72.79
2019-01-15T00:49:47.257Z,73.23
2019-01-15T00:52:17.490Z,73.61
2019-01-15T00:54:47.611Z,73.37
2019-01-15T00:57:17.646Z,73.37
2019-01-15T00:59:47.881Z,72.82
2019-01-15T01:02:18.488Z,72.93
2019-01-15T01:04:48.652Z,72.64
2019-01-15T01:07:19.102Z,72.41
2019-01-15T01:09:49.508Z,72.98
2019-01-15T01:12:22.336Z,72.40
2019-01-15T01:15:02.601Z,72.67
2019-01-15T01:17:32.788Z,72.18
2019-01-15T01:20:03.256Z,71.70
2019-01-15T01:22:33.602Z,71.54
2019-01-15T01:25:23.875Z,72.03
2019-01-15T01:27:54.352Z,71.57
2019-01-15T01:30:25.621Z,71.07
2019-01-15T01:32:55.722Z,71.15
2019-01-15T01:35:26.086Z,71.12
2019-01-15T01:37:56.531Z,70.58
2019-01-15T01:40:27.731Z,70.68
2019-01-15T01:42:58.122Z,70.77
2019-01-15T01:48:19.246Z,70.72
2019-01-15T01:50:49.427Z,70.82
2019-01-15T01:53:19.598Z,70.75
2019-01-15T01:55:50.057Z,70.94
2019-01-15T01:58:20.336Z,71.17
2019-01-15T02:00:50.669Z,71.19
2019-01-15T02:03:21.203Z,71.22
2019-01-15T02:05:51.553Z,71.39
2019-01-15T02:08:21.668Z,71.35
2019-01-15T02:10:52.175Z,71.08
2019-01-15T02:13:22.183Z,70.82
2019-01-15T02:15:52.311Z,70.78
2019-01-15T02:18:22.547Z,70.28
2019-01-15T02:20:52.675Z,70.27
2019-01-15T02:23:23.104Z,70.36
2019-01-15T02:25:53.614Z,69.50
2019-01-15T02:28:23.719Z,69.72
2019-01-15T02:30:54.239Z,70.11
2019-01-15T02:33:24.342Z,70.06
2019-01-15T02:35:54.586Z,70.16
2019-01-15T02:38:24.565Z,70.46
2019-01-15T02:40:54.635Z,70.32
2019-01-15T02:43:24.861Z,70.66
2019-01-15T02:45:55.286Z,70.81
2019-01-15T02:48:25.642Z,71.18
2019-01-15T02:50:55.688Z,71.74
2019-01-15T02:53:25.830Z,71.85
2019-01-15T02:55:56.275Z,72.48
2019-01-15T02:58:26.399Z,72.61
2019-01-15T03:00:56.435Z,72.97
2019-01-15T03:03:26.538Z,72.99
2019-01-15T03:05:56.636Z,72.81
2019-01-15T03:08:26.739Z,73.04
2019-01-15T03:10:57.228Z,73.30
2019-01-15T03:13:27.482Z,73.55
2019-01-15T03:15:57.690Z,73.78
2019-01-15T03:18:27.834Z,74.00
2019-01-15T03:20:58.410Z,74.25
2019-01-15T03:23:28.698Z,74.45
2019-01-15T03:25:59.274Z,74.56
2019-01-15T03:28:29.382Z,74.97
2019-01-15T03:30:59.842Z,75.27
2019-01-15T03:33:30.304Z,75.58
2019-01-15T03:36:00.624Z,75.65
2019-01-15T03:38:30.755Z,75.92
2019-01-15T03:41:20.036Z,76.31
2019-01-15T03:43:50.352Z,76.31
2019-01-15T03:46:20.430Z,76.37
2019-01-15T03:48:51.802Z,76.64
2019-01-15T03:51:22.383Z,76.69
2019-01-15T03:53:52.395Z,76.69
2019-01-15T03:56:22.852Z,76.93
2019-01-15T03:58:53.190Z,76.91
2019-01-15T04:01:23.281Z,77.05
2019-01-15T04:03:53.495Z,76.91
2019-01-15T04:06:24.617Z,76.79
2019-01-15T04:08:54.774Z,77.00
2019-01-15T04:11:25.384Z,76.78
2019-01-15T04:13:55.480Z,76.53
2019-01-15T04:16:25.644Z,76.38
2019-01-15T04:18:55.744Z,76.02
2019-01-15T04:21:26.165Z,75.83
2019-01-15T04:23:56.611Z,75.22
2019-01-15T04:26:26.919Z,74.90
2019-01-15T04:28:57.400Z,74.90
2019-01-15T04:31:27.630Z,74.89
2019-01-15T04:33:58.143Z,74.92
2019-01-15T04:36:28.503Z,75.07
2019-01-15T04:38:58.518Z,75.25
2019-01-15T04:41:28.727Z,75.47
2019-01-15T04:43:59.157Z,75.76
2019-01-15T04:46:29.269Z,76.14
2019-01-15T04:48:59.371Z,76.45
2019-01-15T04:51:29.591Z,76.58
2019-01-15T04:53:59.610Z,76.81
2019-01-15T04:56:30.109Z,77.29
2019-01-15T04:59:20.811Z,77.60
2019-01-15T05:01:51.342Z,77.60
2019-01-15T05:04:21.540Z,78.06
2019-01-15T05:06:51.756Z,78.24
2019-01-15T05:09:22.299Z,78.43
2019-01-15T05:11:52.525Z,78.68
2019-01-15T05:14:22.737Z,78.91
2019-01-15T05:16:53.212Z,78.97
2019-01-15T05:19:23.608Z,79.18
2019-01-15T05:21:53.678Z,79.04
2019-01-15T05:24:24.191Z,79.09
2019-01-15T05:26:54.631Z,79.02
2019-01-15T05:29:24.981Z,78.96
2019-01-15T05:31:55.338Z,78.82
2019-01-15T05:34:25.355Z,78.32
2019-01-15T05:36:55.400Z,78.26
2019-01-15T05:39:25.911Z,78.12
2019-01-15T05:41:56.308Z,78.40
2019-01-15T05:44:26.469Z,77.99
2019-01-15T05:46:56.560Z,77.36
2019-01-15T05:49:26.657Z,77.08
2019-01-15T05:51:56.957Z,76.88
2019-01-15T05:54:46.239Z,76.76
2019-01-15T05:57:16.818Z,76.88
2019-01-15T05:59:47.305Z,76.62
2019-01-15T06:02:17.556Z,76.52
2019-01-15T06:04:47.809Z,76.54
2019-01-15T06:07:18.313Z,76.72
2019-01-15T06:09:48.555Z,76.89
2019-01-15T06:12:18.810Z,77.11
2019-01-15T06:14:49.711Z,77.09
2019-01-15T06:17:20.336Z,77.38
2019-01-15T06:19:50.478Z,77.68
2019-01-15T06:22:20.596Z,77.98
2019-01-15T06:24:50.869Z,78.63
2019-01-15T06:27:21.256Z,79.09
2019-01-15T06:29:51.251Z,79.50
2019-01-15T06:32:21.345Z,79.69
2019-01-15T06:34:51.462Z,79.84
2019-01-15T06:37:21.522Z,79.83
2019-01-15T06:39:51.590Z,80.13
2019-01-15T06:42:21.782Z,80.47
2019-01-15T06:45:31.172Z,80.73
2019-01-15T06:48:01.510Z,81.03
2019-01-15T06:50:31.606Z,81.50
2019-01-15T06:53:01.819Z,81.71
2019-01-15T06:55:32.384Z,82.15
2019-01-15T06:58:02.379Z,82.15
2019-01-15T07:00:32.743Z,82.23
2019-01-15T07:03:03.087Z,82.28
2019-01-15T07:05:33.372Z,82.29
2019-01-15T07:08:03.641Z,82.54
2019-01-15T07:10:36.070Z,82.21
2019-01-15T07:13:06.728Z,82.08
2019-01-15T07:15:37.330Z,81.63
2019-01-15T07:18:07.499Z,81.34
2019-01-15T07:20:37.695Z,80.83
2019-01-15T07:23:08.287Z,80.54
2019-01-15T07:25:38.782Z,80.80
2019-01-15T07:28:28.697Z,80.80
2019-01-15T07:31:01.015Z,80.96
2019-01-15T07:33:32.084Z,80.72
2019-01-15T07:36:02.517Z,80.91
2019-01-15T07:38:32.758Z,81.60
2019-01-15T07:41:03.294Z,82.42
2019-01-15T07:43:33.503Z,83.26
2019-01-15T07:46:03.883Z,84.05
2019-01-15T07:48:34.289Z,84.48
2019-01-15T07:51:04.571Z,85.33
2019-01-15T07:53:34.782Z,85.49
2019-01-15T07:56:05.219Z,86.55
2019-01-15T07:58:35.452Z,86.55
2019-01-15T08:01:07.409Z,88.00
2019-01-15T08:03:37.712Z,88.66
2019-01-15T08:06:08.203Z,89.32
2019-01-15T08:08:38.430Z,90.63
2019-01-15T08:11:08.519Z,91.48
2019-01-15T08:13:38.778Z,92.48
2019-01-15T08:16:28.337Z,94.30
2019-01-15T08:18:58.558Z,94.30
2019-01-15T08:21:28.651Z,95.07
2019-01-15T08:23:58.807Z,95.42
2019-01-15T08:26:29.339Z,95.82
2019-01-15T08:28:59.539Z,96.43
2019-01-15T08:31:38.352Z,96.86
2019-01-15T08:34:08.633Z,97.15
2019-01-15T08:36:38.996Z,97.72
2019-01-15T08:39:10.057Z,98.30
2019-01-15T08:41:40.387Z,98.72
2019-01-15T08:44:10.462Z,99.06
2019-01-15T08:46:40.536Z,99.25
2019-01-15T08:49:10.727Z,99.25
2019-01-15T08:54:32.295Z,98.97
2019-01-15T08:57:02.499Z,98.74
2019-01-15T08:59:32.520Z,98.50
2019-01-15T09:02:02.808Z,98.22
2019-01-15T09:04:33.370Z,98.07
2019-01-15T09:07:03.836Z,97.71
2019-01-15T09:09:34.338Z,97.60
2019-01-15T09:12:04.819Z,97.73
2019-01-15T09:14:35.301Z,97.75
2019-01-15T09:17:10.966Z,97.77
2019-01-15T09:19:37.606Z,97.57
2019-01-15T09:22:07.739Z,97.49
2019-01-15T09:24:39.802Z,97.74
2019-01-15T09:27:10.780Z,97.88
2019-01-15T09:30:00.289Z,97.80
2019-01-15T09:32:30.435Z,97.80
2019-01-15T09:35:00.556Z,97.81
2019-01-15T09:37:30.855Z,97.67
2019-01-15T09:40:01.180Z,97.39
2019-01-15T09:42:31.188Z,97.27
2019-01-15T09:45:01.705Z,96.89
2019-01-15T09:50:22.829Z,96.50
2019-01-15T09:52:53.564Z,96.50
2019-01-15T09:55:23.777Z,96.81
2019-01-15T09:57:54.410Z,97.07
2019-01-15T10:00:24.614Z,96.65
2019-01-15T10:02:54.988Z,96.11
2019-01-15T10:05:25.461Z,95.64
2019-01-15T10:07:55.636Z,95.29
2019-01-15T10:10:25.725Z,95.31
2019-01-15T10:13:15.073Z,94.29
2019-01-15T10:15:45.453Z,94.29
2019-01-15T10:18:15.733Z,94.35
2019-01-15T10:20:47.306Z,93.71
2019-01-15T10:23:17.510Z,94.09
2019-01-15T10:25:47.727Z,93.83
2019-01-15T10:28:18.366Z,94.31
2019-01-15T10:31:26.290Z,94.93
2019-01-15T10:39:34.808Z,96.24
2019-01-15T10:42:05.464Z,96.21
2019-01-15T10:44:35.582Z,96.59
2019-01-15T10:47:05.906Z,96.37
2019-01-15T10:49:36.295Z,96.08
2019-01-15T10:52:06.509Z,95.91
2019-01-15T10:54:36.716Z,95.65
2019-01-15T10:57:06.860Z,95.59
2019-01-15T10:59:37.387Z,95.69
2019-01-15T11:02:07.846Z,95.87
2019-01-15T11:04:59.682Z,94.85
2019-01-15T11:07:30.217Z,94.85
2019-01-15T11:10:00.605Z,94.80
2019-01-15T11:12:30.617Z,94.62
2019-01-15T11:15:01.139Z,95.17
2019-01-15T11:17:31.425Z,95.50
2019-01-15T11:20:01.680Z,95.92
2019-01-15T11:22:32.012Z,95.75
2019-01-15T11:25:02.343Z,95.92
2019-01-15T11:27:32.607Z,96.08
2019-01-15T11:30:02.822Z,96.37
2019-01-15T11:32:33.409Z,96.15
2019-01-15T11:35:03.443Z,96.16
2019-01-15T11:37:34.104Z,95.92
2019-01-15T11:43:14.330Z,96.02
2019-01-15T11:45:44.485Z,95.69
2019-01-15T11:48:14.733Z,95.57
2019-01-15T11:50:45.204Z,96.15
2019-01-15T11:53:15.577Z,96.11
2019-01-15T11:55:45.829Z,96.04
2019-01-15T11:58:17.793Z,95.68
2019-01-15T12:01:07.674Z,95.75
2019-01-15T12:03:56.682Z,95.97
2019-01-15T12:06:45.874Z,96.01
2019-01-15T12:09:35.569Z,95.70
2019-01-15T12:12:24.599Z,95.62
2019-01-15T12:15:32.467Z,95.45
2019-01-15T12:18:21.375Z,95.54
2019-01-15T12:21:10.709Z,95.62
2019-01-15T12:23:54.609Z,95.48
2019-01-15T12:26:43.803Z,95.77
2019-01-15T12:29:33.333Z,95.84
2019-01-15T12:32:22.354Z,95.49
2019-01-15T12:35:11.174Z,95.31
2019-01-15T12:38:00.525Z,95.29
2019-01-15T12:40:49.661Z,94.98
2019-01-15T12:43:38.773Z,94.68
2019-01-15T12:46:28.087Z,94.30
2019-01-15T12:49:10.642Z,93.64
2019-01-15T12:52:20.306Z,93.88
2019-01-15T12:55:09.275Z,93.62
2019-01-15T12:57:53.926Z,93.77
2019-01-15T13:00:43.309Z,93.78
2019-01-15T13:03:32.141Z,93.94
2019-01-15T13:06:21.341Z,93.71
2019-01-15T13:09:10.278Z,93.79
2019-01-15T13:11:59.424Z,93.86
2019-01-15T13:14:48.403Z,93.78
2019-01-15T13:17:37.261Z,93.71
2019-01-15T13:20:28.553Z,93.95
2019-01-15T13:23:05.859Z,94.20
2019-01-15T13:25:45.915Z,94.30
2019-01-15T13:28:35.219Z,94.59
2019-01-15T13:31:24.212Z,94.82
2019-01-15T13:34:13.387Z,94.84
2019-01-15T13:36:53.753Z,94.80
2019-01-15T15:12:02.171Z,95.70
2019-01-15T15:14:51.202Z,95.35
2019-01-15T15:17:40.432Z,94.72
2019-01-15T15:20:29.855Z,94.58
2019-01-15T15:23:19.256Z,94.74
2019-01-15T15:25:56.530Z,94.75
2019-01-15T15:28:45.447Z,94.78
2019-01-15T15:31:34.357Z,94.59
2019-01-15T15:34:23.718Z,94.31
2019-01-15T15:37:12.765Z,94.42
2019-01-15T15:40:02.075Z,94.27
2019-01-15T15:42:51.410Z,94.18
2019-01-15T15:45:41.049Z,94.32
2019-01-15T15:50:08.217Z,94.00
2019-01-15T15:51:21.136Z,93.76
2019-01-15T15:54:10.203Z,93.71
2019-01-15T15:56:59.317Z,93.52
2019-01-15T15:59:48.303Z,93.56
2019-01-15T16:02:37.463Z,93.24
2019-01-15T16:05:28.194Z,93.29
2019-01-15T16:08:08.580Z,93.51
2019-01-15T16:10:57.701Z,93.32
2019-01-15T16:13:47.070Z,93.17
2019-01-15T16:16:36.384Z,93.18
2019-01-15T16:19:25.642Z,93.21
2019-01-15T16:22:14.903Z,93.12
2019-01-15T16:25:04.197Z,93.29
2019-01-15T16:27:45.263Z,93.24
2019-01-15T16:30:34.834Z,93.11
2019-01-15T16:33:24.738Z,93.42
2019-01-15T16:36:28.519Z,93.82
2019-01-15T16:39:05.530Z,93.75
2019-01-15T16:41:54.665Z,94.02
2019-01-15T16:44:43.585Z,94.41
2019-01-15T16:47:32.556Z,93.90
2019-01-15T16:50:21.625Z,93.88
2019-01-15T16:53:10.833Z,94.02
2019-01-15T16:56:00.113Z,93.97
2019-01-15T16:58:49.247Z,93.86
2019-01-15T17:01:38.512Z,93.94
2019-01-15T17:04:28.175Z,94.29
2019-01-15T17:07:17.382Z,94.13
2019-01-15T17:10:06.468Z,94.03
2019-01-15T17:13:06.549Z,93.50
2019-01-15T17:15:55.623Z,93.50
2019-01-15T17:18:44.559Z,93.77
2019-01-15T17:21:33.712Z,93.59
2019-01-15T17:24:23.087Z,93.29
2019-01-15T17:27:12.445Z,93.22
2019-01-15T17:30:01.515Z,93.79
2019-01-15T17:32:50.564Z,93.79
2019-01-15T17:35:39.488Z,93.94
2019-01-15T17:38:24.378Z,94.03
2019-01-15T17:41:13.222Z,94.84
2019-01-15T17:44:04.479Z,94.85
2019-01-15T17:46:53.341Z,94.84
2019-01-15T17:49:42.427Z,95.09
2019-01-15T17:52:31.587Z,95.52
2019-01-15T17:55:20.675Z,96.02
2019-01-15T17:58:10.914Z,95.67
2019-01-15T18:01:00.447Z,95.50
2019-01-15T18:03:53.319Z,95.23
2019-01-15T18:06:41.569Z,95.13
2019-01-15T18:09:31.412Z,94.81
2019-01-15T18:12:23.927Z,94.75
2019-01-15T18:15:13.206Z,94.83
2019-01-15T18:18:02.266Z,94.89
2019-01-15T18:20:51.325Z,94.97
2019-01-15T18:23:40.603Z,94.16
2019-01-15T18:26:29.781Z,94.20
2019-01-15T18:29:18.972Z,93.90
2019-01-15T18:35:14.753Z,94.50
2019-01-15T18:38:04.218Z,94.62
2019-01-15T18:40:54.654Z,94.69
2019-01-15T18:43:43.610Z,95.26
2019-01-15T18:46:23.119Z,95.39
2019-01-15T18:49:12.428Z,95.55
2019-01-15T18:52:01.452Z,95.98
2019-01-15T18:54:50.395Z,96.12
2019-01-15T18:57:39.523Z,96.13
2019-01-15T19:00:31.981Z,96.42
2019-01-15T19:03:21.293Z,96.25
2019-01-15T19:06:22.320Z,96.32
2019-01-15T19:09:05.470Z,96.32
2019-01-15T19:11:48.132Z,96.03
2019-01-15T19:14:37.489Z,96.03
2019-01-15T19:17:20.278Z,96.02
2019-01-15T19:20:09.283Z,96.04
2019-01-15T19:22:58.180Z,95.62
2019-01-15T19:25:47.357Z,95.55
2019-01-15T19:28:36.652Z,95.38
2019-01-15T19:34:19.490Z,95.66
2019-01-15T19:37:08.511Z,95.99
2019-01-15T19:39:57.465Z,96.04
2019-01-15T19:42:46.366Z,96.23
2019-01-15T19:45:35.548Z,96.22
2019-01-15T19:48:25.569Z,96.68
2019-01-15T19:51:14.558Z,96.78
2019-01-15T19:54:03.566Z,96.87
2019-01-15T19:56:52.606Z,96.83
2019-01-15T19:59:41.969Z,96.58
2019-01-15T20:02:31.243Z,96.77
2019-01-15T20:05:20.282Z,96.73
2019-01-15T20:08:09.528Z,96.61
2019-01-15T20:10:58.658Z,96.46
2019-01-15T20:13:47.664Z,96.71
2019-01-15T20:16:35.752Z,96.27
2019-01-15T20:19:25.441Z,96.16
2019-01-15T20:22:14.823Z,95.91
2019-01-15T20:28:07.215Z,95.46
2019-01-15T20:33:56.541Z,95.00
2019-01-15T20:36:46.146Z,95.06
2019-01-15T20:39:35.408Z,95.14
2019-01-15T20:42:24.380Z,95.08
2019-01-15T20:45:13.789Z,95.30
2019-01-15T20:48:14.710Z,95.89
2019-01-15T20:51:04.038Z,95.89
2019-01-15T20:53:53.201Z,96.10
2019-01-15T20:56:44.767Z,96.35
2019-01-15T20:59:36.606Z,96.53
2019-01-15T21:02:24.719Z,96.77
2019-01-15T21:05:13.681Z,97.52
2019-01-15T21:08:21.806Z,98.35
2019-01-15T21:11:11.131Z,98.35
2019-01-15T21:14:19.362Z,98.88
2019-01-15T21:17:08.288Z,98.88
2019-01-15T21:19:57.264Z,98.61
2019-01-15T21:22:46.294Z,98.79
2019-01-15T21:25:35.718Z,98.49
2019-01-15T21:31:34.102Z,97.90
2019-01-15T21:34:23.546Z,97.68
2019-01-15T21:37:12.529Z,97.83
2019-01-15T21:40:01.395Z,97.65
2019-01-15T21:42:50.615Z,97.59
2019-01-15T21:45:39.669Z,97.43
2019-01-15T21:48:28.971Z,97.35
2019-01-15T21:51:18.233Z,97.41
2019-01-15T21:54:07.824Z,97.42
2019-01-15T21:56:57.049Z,97.10
2019-01-15T21:59:46.226Z,96.85
2019-01-15T22:02:35.632Z,96.91
2019-01-15T22:05:48.780Z,96.61
2019-01-15T22:08:35.099Z,96.83
2019-01-15T22:11:24.961Z,96.83
2019-01-15T22:14:14.139Z,96.83
2019-01-15T22:17:07.454Z,96.33
2019-01-15T22:20:14.462Z,96.16
2019-01-15T22:23:03.555Z,96.16
2019-01-15T22:26:11.358Z,95.56
2019-01-15T22:29:00.283Z,95.57
2019-01-15T22:31:38.049Z,95.51
2019-01-15T22:34:19.294Z,96.03
2019-01-15T22:37:09.410Z,96.40
2019-01-15T22:39:58.577Z,96.52
2019-01-15T22:42:48.366Z,96.43
2019-01-15T22:45:37.551Z,96.00
2019-01-15T22:48:26.459Z,95.92
2019-01-15T22:51:15.597Z,95.28
2019-01-15T22:54:05.045Z,95.16
2019-01-15T22:56:54.379Z,95.21
2019-01-15T22:59:43.554Z,94.84
2019-01-15T23:05:34.338Z,94.79
2019-01-15T23:08:23.024Z,94.65
2019-01-15T23:11:11.942Z,94.48
2019-01-15T23:14:01.190Z,94.82
2019-01-15T23:17:02.828Z,94.60
2019-01-15T23:19:51.916Z,94.60
2019-01-15T23:22:41.153Z,95.06
2019-01-15T23:25:30.110Z,95.33
2019-01-15T23:28:19.292Z,95.07
2019-01-15T23:31:08.133Z,95.55
2019-01-15T23:33:47.700Z,95.63
2019-01-15T23:36:36.891Z,95.81
2019-01-15T23:39:47.350Z,95.86
2019-01-15T23:42:36.311Z,96.02
2019-01-15T23:45:45.935Z,96.02
2019-01-15T23:48:36.172Z,95.91
2019-01-15T23:51:26.464Z,95.35
2019-01-15T23:54:15.419Z,95.36
2019-01-15T23:57:04.398Z,95.50
2019-01-15T23:59:53.285Z,95.66
